sensor_id;sensor_type;location;lat;lon;timestamp;temperature;humidity
22249;DHT22;67538;52.180;5.646;2023-02-03T00:00:11;8.70;99.90
22249;DHT22;67538;52.180;5.646;2023-02-03T00:02:39;8.70;99.90
22249;DHT22;67538;52.180;5.646;2023-02-03T00:05:07;8.70;99.90
22249;DHT22;67538;52.180;5.646;2023-02-03T00:07:36;8.70;99.90
22249;DHT22;67538;52.180;5.646;2023-02-03T00:10:05;8.70;99.90
22249;DHT22;67538;52.180;5.646;2023-02-03T00:12:33;8.70;99.90
22249;DHT22;67538;52.180;5.646;2023-02-03T00:15:00;8.80;99.90
22249;DHT22;67538;52.180;5.646;2023-02-03T00:17:27;8.80;99.90
22249;DHT22;67538;52.180;5.646;2023-02-03T00:19:54;8.80;99.90
22249;DHT22;67538;52.180;5.646;2023-02-03T00:22:21;8.80;99.90
22249;DHT22;67538;52.180;5.646;2023-02-03T00:24:48;8.80;99.90
22249;DHT22;67538;52.180;5.646;2023-02-03T00:27:17;8.80;99.90
22249;DHT22;67538;52.180;5.646;2023-02-03T00:29:44;8.80;99.90
22249;DHT22;67538;52.180;5.646;2023-02-03T00:32:11;8.80;99.90
22249;DHT22;67538;52.180;5.646;2023-02-03T00:34:38;8.80;99.90
22249;DHT22;67538;52.180;5.646;2023-02-03T00:37:05;8.80;99.90
22249;DHT22;67538;52.180;5.646;2023-02-03T00:39:34;8.80;99.90
22249;DHT22;67538;52.180;5.646;2023-02-03T00:42:02;8.80;99.90
22249;DHT22;67538;52.180;5.646;2023-02-03T00:44:30;8.80;99.90
22249;DHT22;67538;52.180;5.646;2023-02-03T00:46:58;8.80;99.90
22249;DHT22;67538;52.180;5.646;2023-02-03T00:49:25;8.80;99.90
22249;DHT22;67538;52.180;5.646;2023-02-03T00:51:52;8.80;99.90
22249;DHT22;67538;52.180;5.646;2023-02-03T00:54:19;8.90;99.90
22249;DHT22;67538;52.180;5.646;2023-02-03T00:56:46;8.90;99.90
22249;DHT22;67538;52.180;5.646;2023-02-03T00:59:13;8.90;99.90
22249;DHT22;67538;52.180;5.646;2023-02-03T01:01:42;8.90;99.90
22249;DHT22;67538;52.180;5.646;2023-02-03T01:04:09;8.90;99.90
22249;DHT22;67538;52.180;5.646;2023-02-03T01:06:36;8.90;99.90
22249;DHT22;67538;52.180;5.646;2023-02-03T01:09:03;8.90;99.90
22249;DHT22;67538;52.180;5.646;2023-02-03T01:11:31;8.90;99.90
22249;DHT22;67538;52.180;5.646;2023-02-03T01:13:58;8.80;99.90
22249;DHT22;67538;52.180;5.646;2023-02-03T01:16:27;8.90;99.90
22249;DHT22;67538;52.180;5.646;2023-02-03T01:18:56;8.90;99.90
22249;DHT22;67538;52.180;5.646;2023-02-03T01:21:24;8.90;99.90
22249;DHT22;67538;52.180;5.646;2023-02-03T01:23:53;8.90;99.90
22249;DHT22;67538;52.180;5.646;2023-02-03T01:26:22;8.90;99.90
22249;DHT22;67538;52.180;5.646;2023-02-03T01:28:52;8.90;99.90
22249;DHT22;67538;52.180;5.646;2023-02-03T01:31:21;8.80;99.90
22249;DHT22;67538;52.180;5.646;2023-02-03T01:33:50;8.90;99.90
22249;DHT22;67538;52.180;5.646;2023-02-03T01:36:22;8.80;99.90
22249;DHT22;67538;52.180;5.646;2023-02-03T01:38:49;8.80;99.90
22249;DHT22;67538;52.180;5.646;2023-02-03T01:41:18;8.90;99.90
22249;DHT22;67538;52.180;5.646;2023-02-03T01:43:47;8.90;99.90
22249;DHT22;67538;52.180;5.646;2023-02-03T01:46:25;8.90;99.90
22249;DHT22;67538;52.180;5.646;2023-02-03T01:48:55;8.80;99.90
22249;DHT22;67538;52.180;5.646;2023-02-03T01:51:24;8.80;99.90
22249;DHT22;67538;52.180;5.646;2023-02-03T01:53:52;8.80;99.90
22249;DHT22;67538;52.180;5.646;2023-02-03T01:56:20;8.80;99.90
22249;DHT22;67538;52.180;5.646;2023-02-03T01:58:48;8.80;99.90
22249;DHT22;67538;52.180;5.646;2023-02-03T02:01:16;8.80;99.90
22249;DHT22;67538;52.180;5.646;2023-02-03T02:03:45;8.80;99.90
22249;DHT22;67538;52.180;5.646;2023-02-03T02:06:14;8.80;99.90
22249;DHT22;67538;52.180;5.646;2023-02-03T02:08:46;8.80;99.90
22249;DHT22;67538;52.180;5.646;2023-02-03T02:11:14;8.80;99.90
22249;DHT22;67538;52.180;5.646;2023-02-03T02:13:44;8.80;99.90
22249;DHT22;67538;52.180;5.646;2023-02-03T02:16:17;8.70;99.90
22249;DHT22;67538;52.180;5.646;2023-02-03T02:19:20;8.70;99.90
22249;DHT22;67538;52.180;5.646;2023-02-03T02:21:58;8.70;99.90
22249;DHT22;67538;52.180;5.646;2023-02-03T02:30:38;8.70;99.90
22249;DHT22;67538;52.180;5.646;2023-02-03T02:33:21;8.70;99.90
22249;DHT22;67538;52.180;5.646;2023-02-03T02:35:56;8.80;99.90
22249;DHT22;67538;52.180;5.646;2023-02-03T02:38:40;8.80;99.90
22249;DHT22;67538;52.180;5.646;2023-02-03T02:41:14;8.80;99.90
22249;DHT22;67538;52.180;5.646;2023-02-03T02:43:46;8.80;99.90
22249;DHT22;67538;52.180;5.646;2023-02-03T02:46:19;8.70;99.90
22249;DHT22;67538;52.180;5.646;2023-02-03T02:48:54;8.80;99.90
22249;DHT22;67538;52.180;5.646;2023-02-03T02:51:23;8.70;99.90
22249;DHT22;67538;52.180;5.646;2023-02-03T02:53:53;8.80;99.90
22249;DHT22;67538;52.180;5.646;2023-02-03T02:56:23;8.80;99.90
22249;DHT22;67538;52.180;5.646;2023-02-03T02:58:52;8.80;99.90
22249;DHT22;67538;52.180;5.646;2023-02-03T03:01:20;8.80;99.90
22249;DHT22;67538;52.180;5.646;2023-02-03T03:03:48;8.70;99.90
22249;DHT22;67538;52.180;5.646;2023-02-03T03:06:20;8.80;99.90
22249;DHT22;67538;52.180;5.646;2023-02-03T03:08:52;8.80;99.90
22249;DHT22;67538;52.180;5.646;2023-02-03T03:11:22;8.80;99.90
22249;DHT22;67538;52.180;5.646;2023-02-03T03:13:53;8.90;99.90
22249;DHT22;67538;52.180;5.646;2023-02-03T03:16:23;8.90;99.90
22249;DHT22;67538;52.180;5.646;2023-02-03T03:18:54;9.00;99.90
22249;DHT22;67538;52.180;5.646;2023-02-03T03:21:26;9.00;99.90
22249;DHT22;67538;52.180;5.646;2023-02-03T03:23:56;8.90;99.90
22249;DHT22;67538;52.180;5.646;2023-02-03T03:26:31;9.00;99.90
22249;DHT22;67538;52.180;5.646;2023-02-03T03:29:06;9.00;99.90
22249;DHT22;67538;52.180;5.646;2023-02-03T03:31:36;9.00;99.90
22249;DHT22;67538;52.180;5.646;2023-02-03T03:34:04;9.10;99.90
22249;DHT22;67538;52.180;5.646;2023-02-03T03:36:39;9.10;99.90
22249;DHT22;67538;52.180;5.646;2023-02-03T03:39:12;9.10;99.90
22249;DHT22;67538;52.180;5.646;2023-02-03T03:41:49;9.10;99.90
22249;DHT22;67538;52.180;5.646;2023-02-03T03:44:21;9.10;99.90
22249;DHT22;67538;52.180;5.646;2023-02-03T03:46:57;9.20;99.90
22249;DHT22;67538;52.180;5.646;2023-02-03T03:49:26;9.20;99.90
22249;DHT22;67538;52.180;5.646;2023-02-03T03:51:59;9.30;99.90
22249;DHT22;67538;52.180;5.646;2023-02-03T03:54:29;9.20;99.90
22249;DHT22;67538;52.180;5.646;2023-02-03T03:57:01;9.20;99.90
22249;DHT22;67538;52.180;5.646;2023-02-03T03:59:33;9.30;99.90
22249;DHT22;67538;52.180;5.646;2023-02-03T04:02:01;9.30;99.90
22249;DHT22;67538;52.180;5.646;2023-02-03T04:04:31;9.30;99.90
22249;DHT22;67538;52.180;5.646;2023-02-03T04:07:00;9.40;99.90
22249;DHT22;67538;52.180;5.646;2023-02-03T04:09:27;9.30;99.90
22249;DHT22;67538;52.180;5.646;2023-02-03T04:11:54;9.30;99.90
22249;DHT22;67538;52.180;5.646;2023-02-03T04:14:27;9.40;99.90
22249;DHT22;67538;52.180;5.646;2023-02-03T04:16:54;9.40;99.90
22249;DHT22;67538;52.180;5.646;2023-02-03T04:19:21;9.40;99.90
22249;DHT22;67538;52.180;5.646;2023-02-03T04:21:48;9.40;99.90
22249;DHT22;67538;52.180;5.646;2023-02-03T04:24:17;9.40;99.90
22249;DHT22;67538;52.180;5.646;2023-02-03T04:26:44;9.40;99.90
22249;DHT22;67538;52.180;5.646;2023-02-03T04:29:11;9.40;99.90
22249;DHT22;67538;52.180;5.646;2023-02-03T04:31:38;9.40;99.90
22249;DHT22;67538;52.180;5.646;2023-02-03T04:34:05;9.40;99.90
22249;DHT22;67538;52.180;5.646;2023-02-03T04:36:32;9.40;99.90
22249;DHT22;67538;52.180;5.646;2023-02-03T04:38:59;9.40;99.90
22249;DHT22;67538;52.180;5.646;2023-02-03T04:41:28;9.40;99.90
22249;DHT22;67538;52.180;5.646;2023-02-03T04:43:55;9.40;99.90
22249;DHT22;67538;52.180;5.646;2023-02-03T04:46:22;9.40;99.90
22249;DHT22;67538;52.180;5.646;2023-02-03T04:48:49;9.40;99.90
22249;DHT22;67538;52.180;5.646;2023-02-03T04:51:16;9.40;99.90
22249;DHT22;67538;52.180;5.646;2023-02-03T04:53:43;9.40;99.90
22249;DHT22;67538;52.180;5.646;2023-02-03T04:56:10;9.40;99.90
22249;DHT22;67538;52.180;5.646;2023-02-03T04:58:38;9.40;99.90
22249;DHT22;67538;52.180;5.646;2023-02-03T05:01:06;9.40;99.90
22249;DHT22;67538;52.180;5.646;2023-02-03T05:03:34;9.40;99.90
22249;DHT22;67538;52.180;5.646;2023-02-03T05:06:01;9.40;99.90
22249;DHT22;67538;52.180;5.646;2023-02-03T05:08:30;9.40;99.90
22249;DHT22;67538;52.180;5.646;2023-02-03T05:10:57;9.40;99.90
22249;DHT22;67538;52.180;5.646;2023-02-03T05:13:24;9.40;99.90
22249;DHT22;67538;52.180;5.646;2023-02-03T05:15:52;9.40;99.90
22249;DHT22;67538;52.180;5.646;2023-02-03T05:18:19;9.40;99.90
22249;DHT22;67538;52.180;5.646;2023-02-03T05:20:46;9.40;99.90
22249;DHT22;67538;52.180;5.646;2023-02-03T05:23:13;9.40;99.90
22249;DHT22;67538;52.180;5.646;2023-02-03T05:25:42;9.40;99.90
22249;DHT22;67538;52.180;5.646;2023-02-03T05:28:10;9.40;99.90
22249;DHT22;67538;52.180;5.646;2023-02-03T05:30:37;9.40;99.90
22249;DHT22;67538;52.180;5.646;2023-02-03T05:33:05;9.30;99.90
22249;DHT22;67538;52.180;5.646;2023-02-03T05:35:33;9.30;99.90
22249;DHT22;67538;52.180;5.646;2023-02-03T05:38:00;9.30;99.90
22249;DHT22;67538;52.180;5.646;2023-02-03T05:40:27;9.30;99.90
22249;DHT22;67538;52.180;5.646;2023-02-03T05:43:12;9.40;99.90
22249;DHT22;67538;52.180;5.646;2023-02-03T05:45:39;9.30;99.90
22249;DHT22;67538;52.180;5.646;2023-02-03T05:48:07;9.30;99.90
22249;DHT22;67538;52.180;5.646;2023-02-03T05:50:34;9.30;99.90
22249;DHT22;67538;52.180;5.646;2023-02-03T05:53:03;9.30;99.90
22249;DHT22;67538;52.180;5.646;2023-02-03T05:55:31;9.30;99.90
22249;DHT22;67538;52.180;5.646;2023-02-03T05:57:58;9.30;99.90
22249;DHT22;67538;52.180;5.646;2023-02-03T06:00:26;9.30;99.90
22249;DHT22;67538;52.180;5.646;2023-02-03T06:02:55;9.30;99.90
22249;DHT22;67538;52.180;5.646;2023-02-03T06:05:24;9.30;99.90
22249;DHT22;67538;52.180;5.646;2023-02-03T06:07:51;9.30;99.90
22249;DHT22;67538;52.180;5.646;2023-02-03T06:10:19;9.30;99.90
22249;DHT22;67538;52.180;5.646;2023-02-03T06:12:46;9.30;99.90
22249;DHT22;67538;52.180;5.646;2023-02-03T06:15:14;9.30;99.90
22249;DHT22;67538;52.180;5.646;2023-02-03T06:17:43;9.30;99.90
22249;DHT22;67538;52.180;5.646;2023-02-03T06:20:12;9.30;99.90
22249;DHT22;67538;52.180;5.646;2023-02-03T06:22:40;9.30;99.90
22249;DHT22;67538;52.180;5.646;2023-02-03T06:25:08;9.30;99.90
22249;DHT22;67538;52.180;5.646;2023-02-03T06:27:35;9.30;99.90
22249;DHT22;67538;52.180;5.646;2023-02-03T06:30:02;9.30;99.90
22249;DHT22;67538;52.180;5.646;2023-02-03T06:32:29;9.30;99.90
22249;DHT22;67538;52.180;5.646;2023-02-03T06:34:57;9.30;99.90
22249;DHT22;67538;52.180;5.646;2023-02-03T06:37:24;9.30;99.90
22249;DHT22;67538;52.180;5.646;2023-02-03T06:39:52;9.30;99.90
22249;DHT22;67538;52.180;5.646;2023-02-03T06:42:19;9.30;99.90
22249;DHT22;67538;52.180;5.646;2023-02-03T06:44:46;9.30;99.90
22249;DHT22;67538;52.180;5.646;2023-02-03T06:47:13;9.30;99.90
22249;DHT22;67538;52.180;5.646;2023-02-03T06:49:40;9.30;99.90
22249;DHT22;67538;52.180;5.646;2023-02-03T06:52:08;9.30;99.90
22249;DHT22;67538;52.180;5.646;2023-02-03T06:54:35;9.30;99.90
22249;DHT22;67538;52.180;5.646;2023-02-03T06:57:03;9.30;99.90
22249;DHT22;67538;52.180;5.646;2023-02-03T06:59:30;9.30;99.90
22249;DHT22;67538;52.180;5.646;2023-02-03T07:01:57;9.30;99.90
22249;DHT22;67538;52.180;5.646;2023-02-03T07:04:25;9.30;99.90
22249;DHT22;67538;52.180;5.646;2023-02-03T07:06:53;9.30;99.90
22249;DHT22;67538;52.180;5.646;2023-02-03T07:09:20;9.30;99.90
22249;DHT22;67538;52.180;5.646;2023-02-03T07:11:47;9.30;99.90
22249;DHT22;67538;52.180;5.646;2023-02-03T07:14:15;9.30;99.90
22249;DHT22;67538;52.180;5.646;2023-02-03T07:16:42;9.20;99.90
22249;DHT22;67538;52.180;5.646;2023-02-03T07:19:09;9.20;99.90
22249;DHT22;67538;52.180;5.646;2023-02-03T07:21:36;9.20;99.90
22249;DHT22;67538;52.180;5.646;2023-02-03T07:24:04;9.20;99.90
22249;DHT22;67538;52.180;5.646;2023-02-03T07:26:31;9.20;99.90
22249;DHT22;67538;52.180;5.646;2023-02-03T07:28:58;9.20;99.90
22249;DHT22;67538;52.180;5.646;2023-02-03T07:31:27;9.20;99.90
22249;DHT22;67538;52.180;5.646;2023-02-03T07:33:54;9.20;99.90
22249;DHT22;67538;52.180;5.646;2023-02-03T07:36:21;9.20;99.90
22249;DHT22;67538;52.180;5.646;2023-02-03T07:38:48;9.20;99.90
22249;DHT22;67538;52.180;5.646;2023-02-03T07:41:16;9.20;99.90
22249;DHT22;67538;52.180;5.646;2023-02-03T07:43:43;9.20;99.90
22249;DHT22;67538;52.180;5.646;2023-02-03T07:46:10;9.20;99.90
22249;DHT22;67538;52.180;5.646;2023-02-03T07:48:38;9.20;99.90
22249;DHT22;67538;52.180;5.646;2023-02-03T07:51:05;9.20;99.90
22249;DHT22;67538;52.180;5.646;2023-02-03T07:53:32;9.20;99.90
22249;DHT22;67538;52.180;5.646;2023-02-03T07:56:00;9.20;99.90
22249;DHT22;67538;52.180;5.646;2023-02-03T07:58:27;9.20;99.90
22249;DHT22;67538;52.180;5.646;2023-02-03T08:00:54;9.20;99.90
22249;DHT22;67538;52.180;5.646;2023-02-03T08:03:21;9.30;99.90
22249;DHT22;67538;52.180;5.646;2023-02-03T08:05:49;9.20;99.90
22249;DHT22;67538;52.180;5.646;2023-02-03T08:08:17;9.30;99.90
22249;DHT22;67538;52.180;5.646;2023-02-03T08:10:44;9.30;99.90
22249;DHT22;67538;52.180;5.646;2023-02-03T08:13:11;9.30;99.90
22249;DHT22;67538;52.180;5.646;2023-02-03T08:15:38;9.30;99.90
22249;DHT22;67538;52.180;5.646;2023-02-03T08:18:05;9.30;99.90
22249;DHT22;67538;52.180;5.646;2023-02-03T08:20:34;9.30;99.90
22249;DHT22;67538;52.180;5.646;2023-02-03T08:23:02;9.30;99.90
22249;DHT22;67538;52.180;5.646;2023-02-03T08:25:29;9.40;99.90
22249;DHT22;67538;52.180;5.646;2023-02-03T08:27:57;9.40;99.90
22249;DHT22;67538;52.180;5.646;2023-02-03T08:30:24;9.40;99.90
22249;DHT22;67538;52.180;5.646;2023-02-03T08:32:51;9.40;99.90
22249;DHT22;67538;52.180;5.646;2023-02-03T08:35:18;9.40;99.90
22249;DHT22;67538;52.180;5.646;2023-02-03T08:37:45;9.40;99.90
22249;DHT22;67538;52.180;5.646;2023-02-03T08:40:14;9.40;99.90
22249;DHT22;67538;52.180;5.646;2023-02-03T08:42:41;9.40;99.90
22249;DHT22;67538;52.180;5.646;2023-02-03T08:45:09;9.50;99.90
22249;DHT22;67538;52.180;5.646;2023-02-03T08:47:36;9.50;99.90
22249;DHT22;67538;52.180;5.646;2023-02-03T08:50:05;9.50;99.90
22249;DHT22;67538;52.180;5.646;2023-02-03T08:52:32;9.50;99.90
22249;DHT22;67538;52.180;5.646;2023-02-03T08:54:59;9.50;99.90
22249;DHT22;67538;52.180;5.646;2023-02-03T08:57:31;9.60;99.90
22249;DHT22;67538;52.180;5.646;2023-02-03T08:59:58;9.60;99.90
22249;DHT22;67538;52.180;5.646;2023-02-03T09:02:25;9.60;99.90
22249;DHT22;67538;52.180;5.646;2023-02-03T09:04:52;9.60;99.90
22249;DHT22;67538;52.180;5.646;2023-02-03T09:07:20;9.60;99.90
22249;DHT22;67538;52.180;5.646;2023-02-03T09:09:47;9.70;99.90
22249;DHT22;67538;52.180;5.646;2023-02-03T09:12:14;9.70;99.90
22249;DHT22;67538;52.180;5.646;2023-02-03T09:14:42;9.70;99.90
22249;DHT22;67538;52.180;5.646;2023-02-03T09:17:09;9.70;99.90
22249;DHT22;67538;52.180;5.646;2023-02-03T09:19:36;9.70;99.90
22249;DHT22;67538;52.180;5.646;2023-02-03T09:22:04;9.70;99.90
22249;DHT22;67538;52.180;5.646;2023-02-03T09:24:31;9.70;99.90
22249;DHT22;67538;52.180;5.646;2023-02-03T09:26:58;9.70;99.90
22249;DHT22;67538;52.180;5.646;2023-02-03T09:29:26;9.80;99.90
22249;DHT22;67538;52.180;5.646;2023-02-03T09:31:54;9.80;99.90
22249;DHT22;67538;52.180;5.646;2023-02-03T09:34:22;9.80;99.90
22249;DHT22;67538;52.180;5.646;2023-02-03T09:36:49;9.80;99.90
22249;DHT22;67538;52.180;5.646;2023-02-03T09:39:17;9.80;99.90
22249;DHT22;67538;52.180;5.646;2023-02-03T09:42:04;9.80;99.90
22249;DHT22;67538;52.180;5.646;2023-02-03T09:44:40;9.90;99.90
22249;DHT22;67538;52.180;5.646;2023-02-03T09:47:13;9.90;99.90
22249;DHT22;67538;52.180;5.646;2023-02-03T09:49:44;9.80;99.90
22249;DHT22;67538;52.180;5.646;2023-02-03T09:52:14;9.90;99.90
22249;DHT22;67538;52.180;5.646;2023-02-03T09:54:49;9.80;99.90
22249;DHT22;67538;52.180;5.646;2023-02-03T09:57:21;9.80;99.90
22249;DHT22;67538;52.180;5.646;2023-02-03T09:59:49;9.80;99.90
22249;DHT22;67538;52.180;5.646;2023-02-03T10:02:26;9.80;99.90
22249;DHT22;67538;52.180;5.646;2023-02-03T10:04:57;9.90;99.90
22249;DHT22;67538;52.180;5.646;2023-02-03T10:07:26;9.80;99.90
22249;DHT22;67538;52.180;5.646;2023-02-03T10:09:59;9.80;99.90
22249;DHT22;67538;52.180;5.646;2023-02-03T10:12:43;9.80;99.90
22249;DHT22;67538;52.180;5.646;2023-02-03T10:18:02;9.90;99.90
22249;DHT22;67538;52.180;5.646;2023-02-03T10:20:32;9.90;99.90
22249;DHT22;67538;52.180;5.646;2023-02-03T10:23:01;9.90;99.90
22249;DHT22;67538;52.180;5.646;2023-02-03T10:25:30;9.90;99.90
22249;DHT22;67538;52.180;5.646;2023-02-03T10:28:00;10.00;99.90
22249;DHT22;67538;52.180;5.646;2023-02-03T10:30:30;10.00;99.90
22249;DHT22;67538;52.180;5.646;2023-02-03T10:32:59;9.90;99.90
22249;DHT22;67538;52.180;5.646;2023-02-03T10:35:35;10.00;99.90
22249;DHT22;67538;52.180;5.646;2023-02-03T10:38:11;10.00;99.90
22249;DHT22;67538;52.180;5.646;2023-02-03T10:40:39;10.10;99.90
22249;DHT22;67538;52.180;5.646;2023-02-03T10:43:06;10.10;99.90
22249;DHT22;67538;52.180;5.646;2023-02-03T10:45:51;10.10;99.90
22249;DHT22;67538;52.180;5.646;2023-02-03T10:48:18;10.10;99.90
22249;DHT22;67538;52.180;5.646;2023-02-03T10:50:47;10.10;99.90
22249;DHT22;67538;52.180;5.646;2023-02-03T10:53:21;10.10;99.90
22249;DHT22;67538;52.180;5.646;2023-02-03T10:55:49;10.10;99.90
22249;DHT22;67538;52.180;5.646;2023-02-03T10:58:18;10.10;99.90
22249;DHT22;67538;52.180;5.646;2023-02-03T11:00:49;10.10;99.90
22249;DHT22;67538;52.180;5.646;2023-02-03T11:03:20;10.10;99.90
22249;DHT22;67538;52.180;5.646;2023-02-03T11:05:57;10.10;99.90
22249;DHT22;67538;52.180;5.646;2023-02-03T11:08:28;10.10;99.90
22249;DHT22;67538;52.180;5.646;2023-02-03T11:11:00;10.10;99.90
22249;DHT22;67538;52.180;5.646;2023-02-03T11:13:27;10.10;99.90
22249;DHT22;67538;52.180;5.646;2023-02-03T11:15:54;10.10;99.90
22249;DHT22;67538;52.180;5.646;2023-02-03T11:18:26;10.10;99.90
22249;DHT22;67538;52.180;5.646;2023-02-03T11:20:54;10.10;99.90
22249;DHT22;67538;52.180;5.646;2023-02-03T11:23:23;10.10;99.90
22249;DHT22;67538;52.180;5.646;2023-02-03T11:25:50;10.20;99.90
22249;DHT22;67538;52.180;5.646;2023-02-03T11:28:17;10.20;99.90
22249;DHT22;67538;52.180;5.646;2023-02-03T11:30:46;10.20;99.90
22249;DHT22;67538;52.180;5.646;2023-02-03T11:33:20;10.20;99.90
22249;DHT22;67538;52.180;5.646;2023-02-03T11:35:56;10.20;99.90
22249;DHT22;67538;52.180;5.646;2023-02-03T11:38:31;10.20;99.90
22249;DHT22;67538;52.180;5.646;2023-02-03T11:41:01;10.20;99.90
22249;DHT22;67538;52.180;5.646;2023-02-03T11:43:28;10.20;99.90
22249;DHT22;67538;52.180;5.646;2023-02-03T11:45:58;10.20;99.90
22249;DHT22;67538;52.180;5.646;2023-02-03T11:48:27;10.20;99.90
22249;DHT22;67538;52.180;5.646;2023-02-03T11:50:57;10.30;99.90
22249;DHT22;67538;52.180;5.646;2023-02-03T11:53:28;10.30;99.90
22249;DHT22;67538;52.180;5.646;2023-02-03T11:58:57;10.30;99.90
22249;DHT22;67538;52.180;5.646;2023-02-03T12:01:32;10.40;99.90
22249;DHT22;67538;52.180;5.646;2023-02-03T12:04:19;10.40;99.90
22249;DHT22;67538;52.180;5.646;2023-02-03T12:09:31;10.30;99.90
22249;DHT22;67538;52.180;5.646;2023-02-03T12:12:09;10.20;99.90
22249;DHT22;67538;52.180;5.646;2023-02-03T12:14:46;10.10;99.90
22249;DHT22;67538;52.180;5.646;2023-02-03T12:17:19;10.00;99.90
22249;DHT22;67538;52.180;5.646;2023-02-03T12:19:54;9.90;99.90
22249;DHT22;67538;52.180;5.646;2023-02-03T12:22:25;9.80;99.90
22249;DHT22;67538;52.180;5.646;2023-02-03T12:24:56;9.80;99.90
22249;DHT22;67538;52.180;5.646;2023-02-03T12:27:27;9.70;99.90
22249;DHT22;67538;52.180;5.646;2023-02-03T12:29:58;9.50;99.90
22249;DHT22;67538;52.180;5.646;2023-02-03T12:32:28;9.40;99.90
22249;DHT22;67538;52.180;5.646;2023-02-03T12:34:58;9.40;99.90
22249;DHT22;67538;52.180;5.646;2023-02-03T12:37:41;9.40;99.90
22249;DHT22;67538;52.180;5.646;2023-02-03T12:40:11;9.40;99.90
22249;DHT22;67538;52.180;5.646;2023-02-03T12:42:40;9.30;99.90
22249;DHT22;67538;52.180;5.646;2023-02-03T12:45:09;9.40;99.90
22249;DHT22;67538;52.180;5.646;2023-02-03T12:47:38;9.40;99.90
22249;DHT22;67538;52.180;5.646;2023-02-03T12:50:09;9.40;99.90
22249;DHT22;67538;52.180;5.646;2023-02-03T12:52:39;9.50;99.90
22249;DHT22;67538;52.180;5.646;2023-02-03T12:55:14;9.50;99.90
22249;DHT22;67538;52.180;5.646;2023-02-03T12:57:45;9.50;99.90
22249;DHT22;67538;52.180;5.646;2023-02-03T13:00:23;9.60;99.90
22249;DHT22;67538;52.180;5.646;2023-02-03T13:02:54;9.60;99.90
22249;DHT22;67538;52.180;5.646;2023-02-03T13:05:25;9.60;99.90
22249;DHT22;67538;52.180;5.646;2023-02-03T13:07:55;9.60;99.90
22249;DHT22;67538;52.180;5.646;2023-02-03T13:10:25;9.60;99.90
22249;DHT22;67538;52.180;5.646;2023-02-03T13:12:55;9.60;99.90
22249;DHT22;67538;52.180;5.646;2023-02-03T13:15:26;9.60;99.90
22249;DHT22;67538;52.180;5.646;2023-02-03T13:17:55;9.60;99.90
22249;DHT22;67538;52.180;5.646;2023-02-03T13:20:23;9.60;99.90
22249;DHT22;67538;52.180;5.646;2023-02-03T13:22:51;9.60;99.90
22249;DHT22;67538;52.180;5.646;2023-02-03T13:25:19;9.60;99.90
22249;DHT22;67538;52.180;5.646;2023-02-03T13:27:49;9.60;99.90
22249;DHT22;67538;52.180;5.646;2023-02-03T13:30:23;9.60;99.90
22249;DHT22;67538;52.180;5.646;2023-02-03T13:33:10;9.50;99.90
22249;DHT22;67538;52.180;5.646;2023-02-03T13:35:44;9.60;99.90
22249;DHT22;67538;52.180;5.646;2023-02-03T13:38:23;9.60;99.90
22249;DHT22;67538;52.180;5.646;2023-02-03T13:40:55;9.60;99.90
22249;DHT22;67538;52.180;5.646;2023-02-03T13:43:25;9.60;99.90
22249;DHT22;67538;52.180;5.646;2023-02-03T13:45:54;9.50;99.90
22249;DHT22;67538;52.180;5.646;2023-02-03T13:48:23;9.60;99.90
22249;DHT22;67538;52.180;5.646;2023-02-03T13:51:02;9.50;99.90
22249;DHT22;67538;52.180;5.646;2023-02-03T13:53:32;9.60;99.90
22249;DHT22;67538;52.180;5.646;2023-02-03T13:55:59;9.50;99.90
22249;DHT22;67538;52.180;5.646;2023-02-03T13:58:28;9.50;99.90
22249;DHT22;67538;52.180;5.646;2023-02-03T14:01:03;9.50;99.90
22249;DHT22;67538;52.180;5.646;2023-02-03T14:03:43;9.50;99.90
22249;DHT22;67538;52.180;5.646;2023-02-03T14:08:57;9.60;99.90
22249;DHT22;67538;52.180;5.646;2023-02-03T14:16:59;9.50;99.90
22249;DHT22;67538;52.180;5.646;2023-02-03T14:22:15;9.50;99.90
22249;DHT22;67538;52.180;5.646;2023-02-03T14:24:43;9.50;99.90
22249;DHT22;67538;52.180;5.646;2023-02-03T14:27:15;9.40;99.90
22249;DHT22;67538;52.180;5.646;2023-02-03T14:29:42;9.40;99.90
22249;DHT22;67538;52.180;5.646;2023-02-03T14:32:09;9.40;99.90
22249;DHT22;67538;52.180;5.646;2023-02-03T14:34:37;9.40;99.90
22249;DHT22;67538;52.180;5.646;2023-02-03T14:45:26;9.30;99.90
22249;DHT22;67538;52.180;5.646;2023-02-03T14:47:58;9.30;99.90
22249;DHT22;67538;52.180;5.646;2023-02-03T14:50:29;9.30;99.90
22249;DHT22;67538;52.180;5.646;2023-02-03T14:53:13;9.20;99.90
22249;DHT22;67538;52.180;5.646;2023-02-03T14:55:43;9.20;99.90
22249;DHT22;67538;52.180;5.646;2023-02-03T14:58:19;9.20;99.90
22249;DHT22;67538;52.180;5.646;2023-02-03T15:00:50;9.10;99.90
22249;DHT22;67538;52.180;5.646;2023-02-03T15:03:22;9.10;99.90
22249;DHT22;67538;52.180;5.646;2023-02-03T15:05:50;9.10;99.90
22249;DHT22;67538;52.180;5.646;2023-02-03T15:11:15;9.00;99.90
22249;DHT22;67538;52.180;5.646;2023-02-03T15:13:46;9.00;99.90
22249;DHT22;67538;52.180;5.646;2023-02-03T15:16:16;9.00;99.90
22249;DHT22;67538;52.180;5.646;2023-02-03T15:18:44;9.00;99.90
22249;DHT22;67538;52.180;5.646;2023-02-03T15:21:13;9.00;99.90
22249;DHT22;67538;52.180;5.646;2023-02-03T15:23:42;8.90;99.90
22249;DHT22;67538;52.180;5.646;2023-02-03T15:26:12;8.90;99.90
22249;DHT22;67538;52.180;5.646;2023-02-03T15:28:39;8.90;99.90
22249;DHT22;67538;52.180;5.646;2023-02-03T15:31:08;8.90;99.90
22249;DHT22;67538;52.180;5.646;2023-02-03T15:33:39;8.80;99.90
22249;DHT22;67538;52.180;5.646;2023-02-03T15:36:10;8.80;99.90
22249;DHT22;67538;52.180;5.646;2023-02-03T15:38:40;8.80;99.90
22249;DHT22;67538;52.180;5.646;2023-02-03T15:41:10;8.70;99.90
22249;DHT22;67538;52.180;5.646;2023-02-03T15:43:41;8.70;99.90
22249;DHT22;67538;52.180;5.646;2023-02-03T15:46:12;8.80;99.90
22249;DHT22;67538;52.180;5.646;2023-02-03T15:48:45;8.70;99.90
22249;DHT22;67538;52.180;5.646;2023-02-03T15:51:14;8.70;99.90
22249;DHT22;67538;52.180;5.646;2023-02-03T15:53:46;8.70;99.90
22249;DHT22;67538;52.180;5.646;2023-02-03T15:56:21;8.80;99.90
22249;DHT22;67538;52.180;5.646;2023-02-03T15:58:50;8.70;99.90
22249;DHT22;67538;52.180;5.646;2023-02-03T16:01:19;8.70;99.90
22249;DHT22;67538;52.180;5.646;2023-02-03T16:03:49;8.70;99.90
22249;DHT22;67538;52.180;5.646;2023-02-03T16:06:18;8.70;99.90
22249;DHT22;67538;52.180;5.646;2023-02-03T16:08:49;8.70;99.90
22249;DHT22;67538;52.180;5.646;2023-02-03T16:11:24;8.70;99.90
22249;DHT22;67538;52.180;5.646;2023-02-03T16:13:51;8.60;99.90
22249;DHT22;67538;52.180;5.646;2023-02-03T16:16:20;8.60;99.90
22249;DHT22;67538;52.180;5.646;2023-02-03T16:18:52;8.60;99.90
22249;DHT22;67538;52.180;5.646;2023-02-03T16:21:27;8.60;99.90
22249;DHT22;67538;52.180;5.646;2023-02-03T16:23:55;8.60;99.90
22249;DHT22;67538;52.180;5.646;2023-02-03T16:26:22;8.60;99.90
22249;DHT22;67538;52.180;5.646;2023-02-03T16:28:54;8.50;99.90
22249;DHT22;67538;52.180;5.646;2023-02-03T16:31:40;8.50;99.90
22249;DHT22;67538;52.180;5.646;2023-02-03T16:34:28;8.50;99.90
22249;DHT22;67538;52.180;5.646;2023-02-03T16:37:12;8.50;99.90